createdAt,value
2022-08-03T00:01:33.582Z,76.09
2022-08-03T00:04:00.231Z,75.98
2022-08-03T00:06:26.700Z,76.15
2022-08-03T00:08:53.408Z,76.39
2022-08-03T00:11:20.295Z,76.31
2022-08-03T00:13:47.088Z,75.93
2022-08-03T00:16:13.649Z,75.51
2022-08-03T00:18:40.394Z,75.16
2022-08-03T00:21:07.299Z,75.59
2022-08-03T00:23:52.403Z,75.65
2022-08-03T00:26:20.911Z,76.01
2022-08-03T00:28:47.873Z,75.95
2022-08-03T00:31:14.605Z,76.26
2022-08-03T00:33:58.936Z,76.10
2022-08-03T00:36:28.299Z,75.65
2022-08-03T00:38:55.555Z,75.79
2022-08-03T00:41:22.215Z,76.12
2022-08-03T00:43:48.748Z,76.15
2022-08-03T00:46:20.633Z,75.93
2022-08-03T00:48:52.321Z,75.62
2022-08-03T00:51:20.732Z,74.74
2022-08-03T00:53:47.501Z,74.93
2022-08-03T00:56:15.364Z,75.98
2022-08-03T00:58:43.701Z,74.69
2022-08-03T01:01:10.580Z,74.80
2022-08-03T01:03:37.384Z,75.15
2022-08-03T01:06:27.205Z,75.72
2022-08-03T01:09:11.599Z,76.19
2022-08-03T01:12:00.485Z,76.05
2022-08-03T01:14:34.544Z,75.40
2022-08-03T01:17:15.478Z,75.73
2022-08-03T01:19:54.085Z,75.68
2022-08-03T01:22:50.155Z,75.64
2022-08-03T01:25:40.186Z,76.03
2022-08-03T01:28:21.906Z,77.10
2022-08-03T01:30:50.021Z,77.56
2022-08-03T01:33:20.854Z,78.10
2022-08-03T01:35:52.387Z,78.44
2022-08-03T01:38:24.824Z,78.57
2022-08-03T01:40:54.871Z,79.13
2022-08-03T01:44:27.622Z,78.68
2022-08-03T01:46:15.939Z,78.45
2022-08-03T01:48:44.495Z,78.28
2022-08-03T01:51:11.997Z,78.58
2022-08-03T01:53:42.906Z,78.51
2022-08-03T01:56:10.729Z,78.38
2022-08-03T01:58:38.514Z,78.44
2022-08-03T02:01:06.244Z,78.95
2022-08-03T02:03:37.337Z,78.19
2022-08-03T02:07:00.488Z,77.80
2022-08-03T02:08:54.744Z,77.65
2022-08-03T02:11:21.614Z,78.57
2022-08-03T02:13:50.556Z,79.21
2022-08-03T02:16:19.271Z,79.91
2022-08-03T02:18:47.949Z,80.75
2022-08-03T02:21:55.798Z,81.32
2022-08-03T02:24:02.722Z,81.46
2022-08-03T02:26:30.720Z,81.06
2022-08-03T02:29:01.974Z,81.19
2022-08-03T02:31:30.801Z,81.47
2022-08-03T02:34:03.286Z,81.59
2022-08-03T02:36:32.216Z,81.64
2022-08-03T02:39:00.871Z,81.60
2022-08-03T02:41:41.732Z,81.68
2022-08-03T02:44:10.968Z,81.54
2022-08-03T02:46:45.405Z,81.58
2022-08-03T02:49:41.185Z,80.92
2022-08-03T02:52:02.410Z,81.22
2022-08-03T02:54:30.716Z,81.57
2022-08-03T02:56:58.622Z,81.72
2022-08-03T02:59:26.426Z,82.04
2022-08-03T03:01:55.129Z,81.94
2022-08-03T03:04:22.561Z,82.21
2022-08-03T03:06:54.619Z,81.97
2022-08-03T03:09:22.491Z,81.71
2022-08-03T03:11:50.768Z,81.86
2022-08-03T03:14:18.459Z,81.92
2022-08-03T03:17:02.420Z,81.86
2022-08-03T03:19:32.489Z,82.32
2022-08-03T03:22:02.159Z,82.42
2022-08-03T03:24:29.965Z,82.33
2022-08-03T03:26:58.146Z,82.77
2022-08-03T03:29:25.454Z,83.07
2022-08-03T03:31:52.468Z,83.11
2022-08-03T03:34:19.453Z,82.85
2022-08-03T03:36:46.145Z,82.86
2022-08-03T03:39:14.287Z,82.81
2022-08-03T03:41:43.450Z,82.84
2022-08-03T03:44:10.305Z,82.53
2022-08-03T03:46:38.768Z,82.72
2022-08-03T03:49:07.180Z,82.71
2022-08-03T03:51:33.788Z,83.10
2022-08-03T03:54:03.025Z,83.13
2022-08-03T03:56:29.595Z,83.09
2022-08-03T03:58:58.689Z,82.84
2022-08-03T04:01:25.644Z,82.94
2022-08-03T04:03:52.180Z,82.67
2022-08-03T04:06:37.800Z,82.48
2022-08-03T04:09:22.899Z,82.19
2022-08-03T04:11:52.535Z,82.41
2022-08-03T04:14:36.247Z,82.87
2022-08-03T04:17:07.548Z,82.94
2022-08-03T04:19:42.268Z,82.76
2022-08-03T04:22:16.676Z,82.57
2022-08-03T04:24:48.509Z,82.91
2022-08-03T04:27:27.396Z,82.68
2022-08-03T04:29:56.943Z,82.70
2022-08-03T04:32:28.744Z,82.68
2022-08-03T04:34:55.921Z,82.69
2022-08-03T04:37:43.733Z,82.18
2022-08-03T04:40:15.011Z,82.32
2022-08-03T04:42:44.196Z,82.28
2022-08-03T04:45:15.346Z,82.31
2022-08-03T04:47:42.719Z,81.93
2022-08-03T04:50:12.925Z,81.83
2022-08-03T04:52:40.145Z,81.91
2022-08-03T04:55:07.208Z,81.98
2022-08-03T04:57:33.636Z,82.21
2022-08-03T05:00:03.196Z,82.00
2022-08-03T05:02:31.872Z,81.84
2022-08-03T05:04:59.064Z,81.79
2022-08-03T05:07:25.670Z,82.01
2022-08-03T05:10:01.413Z,81.94
2022-08-03T05:12:32.740Z,81.52
2022-08-03T05:15:00.007Z,80.99
2022-08-03T05:17:26.709Z,81.01
2022-08-03T05:19:53.151Z,80.96
2022-08-03T05:22:20.138Z,80.51
2022-08-03T05:24:46.849Z,80.30
2022-08-03T05:27:19.068Z,80.27
2022-08-03T05:29:50.245Z,80.29
2022-08-03T05:32:18.236Z,80.15
2022-08-03T05:34:44.972Z,79.58
2022-08-03T05:37:11.420Z,78.03
2022-08-03T05:39:38.418Z,76.65
2022-08-03T05:42:04.928Z,75.72
2022-08-03T05:44:31.803Z,74.28
2022-08-03T05:46:59.210Z,71.16
2022-08-03T05:49:25.684Z,68.60
2022-08-03T05:52:00.457Z,67.67
2022-08-03T05:54:55.619Z,63.75
2022-08-03T05:57:24.844Z,60.92
2022-08-03T05:59:54.581Z,62.30
2022-08-03T06:02:25.480Z,63.66
2022-08-03T06:04:51.881Z,63.26
2022-08-03T06:07:18.573Z,59.91
2022-08-03T06:10:35.078Z,57.47
2022-08-03T06:12:31.547Z,52.96
2022-08-03T06:14:58.018Z,52.58
2022-08-03T06:17:24.527Z,51.52
2022-08-03T06:19:53.819Z,49.06
2022-08-03T06:22:20.651Z,48.81
2022-08-03T06:24:53.479Z,50.92
2022-08-03T06:27:30.316Z,51.14
2022-08-03T06:30:05.083Z,49.95
2022-08-03T06:32:31.612Z,51.11
2022-08-03T06:34:58.035Z,50.43
2022-08-03T06:37:24.679Z,47.65
2022-08-03T06:39:51.240Z,45.42
2022-08-03T06:42:18.125Z,43.56
2022-08-03T06:44:47.087Z,42.86
2022-08-03T06:47:13.555Z,43.41
2022-08-03T06:50:12.619Z,42.76
2022-08-03T06:52:38.731Z,39.81
2022-08-03T06:55:06.350Z,40.60
2022-08-03T06:57:33.079Z,41.88
2022-08-03T07:00:10.362Z,43.22
2022-08-03T07:02:40.018Z,44.40
2022-08-03T07:05:07.750Z,46.81
2022-08-03T07:07:34.330Z,49.27
2022-08-03T07:10:00.939Z,51.54
2022-08-03T07:12:30.319Z,53.58
2022-08-03T07:15:01.308Z,55.08
2022-08-03T07:17:34.677Z,55.42
2022-08-03T07:20:04.165Z,56.44
2022-08-03T07:22:30.664Z,57.32
2022-08-03T07:24:57.264Z,57.66
2022-08-03T07:27:27.284Z,57.83
2022-08-03T07:30:00.029Z,59.08
2022-08-03T07:32:28.480Z,57.47
2022-08-03T07:35:00.304Z,55.67
2022-08-03T07:37:27.580Z,51.91
2022-08-03T07:39:54.131Z,48.80
2022-08-03T07:42:20.746Z,46.96
2022-08-03T07:44:47.154Z,44.56
2022-08-03T07:47:22.671Z,43.72
2022-08-03T07:49:49.849Z,45.34
2022-08-03T07:52:34.618Z,43.94
2022-08-03T07:55:01.020Z,43.41
2022-08-03T07:57:27.636Z,42.25
2022-08-03T08:00:01.845Z,40.81
2022-08-03T08:02:29.237Z,42.59
2022-08-03T08:04:55.636Z,41.63
2022-08-03T08:07:22.304Z,41.09
2022-08-03T08:09:48.685Z,39.90
2022-08-03T08:12:16.105Z,40.58
2022-08-03T08:14:45.850Z,39.00
2022-08-03T08:17:12.961Z,39.55
2022-08-03T08:19:39.364Z,40.01
2022-08-03T08:22:18.252Z,39.61
2022-08-03T08:24:50.412Z,37.60
2022-08-03T08:27:18.872Z,38.18
2022-08-03T08:29:47.974Z,38.41
2022-08-03T08:32:21.790Z,40.24
2022-08-03T08:34:48.344Z,39.06
2022-08-03T08:37:15.016Z,38.97
2022-08-03T08:39:41.440Z,38.52
2022-08-03T08:42:08.561Z,37.41
2022-08-03T08:44:35.040Z,37.97
2022-08-03T08:47:03.234Z,37.61
2022-08-03T08:49:29.927Z,38.45
2022-08-03T08:52:01.392Z,37.73
2022-08-03T08:54:29.744Z,38.52
2022-08-03T08:56:57.649Z,37.94
2022-08-03T08:59:25.004Z,38.17
2022-08-03T09:01:51.420Z,39.05
2022-08-03T09:04:18.160Z,37.84
2022-08-03T09:06:58.710Z,37.24
2022-08-03T09:10:12.343Z,35.98
2022-08-03T09:12:39.050Z,36.12
2022-08-03T09:15:25.248Z,37.78
2022-08-03T09:17:53.811Z,37.41
2022-08-03T09:20:22.268Z,37.21
2022-08-03T09:23:19.041Z,37.24
2022-08-03T09:26:00.061Z,39.14
2022-08-03T09:28:58.848Z,38.92
2022-08-03T09:31:36.278Z,38.60
2022-08-03T09:34:05.389Z,38.72
2022-08-03T09:36:48.524Z,41.37
2022-08-03T09:39:19.149Z,37.22
2022-08-03T09:42:06.525Z,38.88
2022-08-03T09:44:37.857Z,36.33
2022-08-03T09:47:06.133Z,37.23
2022-08-03T09:49:32.856Z,37.45
2022-08-03T09:52:37.929Z,38.37
2022-08-03T09:55:02.428Z,37.71
2022-08-03T09:57:32.176Z,38.20
2022-08-03T10:00:16.378Z,37.46
2022-08-03T10:02:44.583Z,37.53
2022-08-03T10:05:19.421Z,38.15
2022-08-03T10:07:48.348Z,37.42
2022-08-03T10:10:30.821Z,35.86
2022-08-03T10:13:00.226Z,36.55
2022-08-03T10:16:21.427Z,34.75
2022-08-03T10:18:13.832Z,35.75
2022-08-03T10:20:51.620Z,36.09
2022-08-03T10:23:20.073Z,37.31
2022-08-03T10:25:49.433Z,35.10
2022-08-03T10:28:20.066Z,33.76
2022-08-03T10:30:50.856Z,33.65
2022-08-03T10:33:51.464Z,35.75
2022-08-03T10:36:07.361Z,34.07
2022-08-03T10:38:40.449Z,33.19
2022-08-03T10:41:08.752Z,33.79
2022-08-03T10:43:49.209Z,33.97
2022-08-03T10:46:18.655Z,35.54
2022-08-03T10:48:46.390Z,32.88
2022-08-03T10:51:13.652Z,34.47
2022-08-03T10:53:54.884Z,33.22
2022-08-03T10:56:52.622Z,33.99
2022-08-03T10:59:39.731Z,33.51
2022-08-03T11:02:09.859Z,32.96
2022-08-03T11:04:36.381Z,33.29
2022-08-03T11:07:22.471Z,33.70
2022-08-03T11:09:54.685Z,33.44
2022-08-03T11:12:29.993Z,35.25
2022-08-03T11:15:01.008Z,35.29
2022-08-03T11:17:27.831Z,35.05
2022-08-03T11:19:56.774Z,35.01
2022-08-03T11:22:25.683Z,34.49
2022-08-03T11:24:54.317Z,34.13
2022-08-03T11:27:23.323Z,32.78
2022-08-03T11:30:18.774Z,33.39
2022-08-03T11:32:48.472Z,34.23
2022-08-03T11:35:19.833Z,34.44
2022-08-03T11:38:03.425Z,33.65
2022-08-03T11:40:49.287Z,34.57
2022-08-03T11:43:31.667Z,33.67
2022-08-03T11:46:28.546Z,34.16
2022-08-03T11:49:09.986Z,31.68
2022-08-03T11:51:38.030Z,31.23
2022-08-03T11:54:06.477Z,32.40
2022-08-03T11:56:50.219Z,32.55
2022-08-03T11:59:21.881Z,31.38
2022-08-03T12:01:49.032Z,32.46
2022-08-03T12:04:16.357Z,33.44
2022-08-03T12:06:58.773Z,33.01
2022-08-03T12:09:25.175Z,30.57
2022-08-03T12:11:56.229Z,32.18
2022-08-03T12:14:48.748Z,32.37
2022-08-03T12:17:14.907Z,31.77
2022-08-03T12:19:45.408Z,31.96
2022-08-03T12:22:12.097Z,32.60
2022-08-03T12:24:47.481Z,32.96
2022-08-03T12:27:24.492Z,32.80
2022-08-03T12:29:58.143Z,34.08
2022-08-03T12:32:26.497Z,34.31
2022-08-03T12:34:53.327Z,33.92
2022-08-03T12:37:22.938Z,32.08
2022-08-03T12:40:03.577Z,29.65
2022-08-03T12:42:39.246Z,30.79
2022-08-03T12:45:22.444Z,30.43
2022-08-03T12:47:53.932Z,32.71
2022-08-03T12:50:27.117Z,30.88
2022-08-03T12:52:54.405Z,29.55
2022-08-03T12:55:22.451Z,30.66
2022-08-03T12:57:49.577Z,29.93
2022-08-03T13:00:21.514Z,32.19
2022-08-03T13:03:38.650Z,31.12
2022-08-03T13:05:52.643Z,30.45
2022-08-03T13:08:24.472Z,32.27
2022-08-03T13:10:53.816Z,31.86
2022-08-03T13:13:37.972Z,32.12
2022-08-03T13:16:04.576Z,32.08
2022-08-03T13:18:31.166Z,32.32
2022-08-03T13:20:57.572Z,33.45
2022-08-03T13:23:24.169Z,33.74
2022-08-03T13:25:55.186Z,32.80
2022-08-03T13:28:23.023Z,32.48
2022-08-03T13:30:49.699Z,33.74
2022-08-03T13:33:16.113Z,32.50
2022-08-03T13:35:42.617Z,32.80
2022-08-03T13:38:09.242Z,32.65
2022-08-03T13:40:42.294Z,33.89
2022-08-03T13:43:09.093Z,33.50
2022-08-03T13:45:36.227Z,33.62
2022-08-03T13:48:02.744Z,33.65
2022-08-03T13:50:30.168Z,33.68
2022-08-03T13:52:57.910Z,32.55
2022-08-03T13:55:25.075Z,34.67
2022-08-03T13:58:11.474Z,33.79
2022-08-03T14:00:39.697Z,34.72
2022-08-03T14:03:13.164Z,35.01
2022-08-03T14:05:42.390Z,34.37
2022-08-03T14:08:09.578Z,34.50
2022-08-03T14:10:38.352Z,34.39
2022-08-03T14:13:05.766Z,34.14
2022-08-03T14:15:37.778Z,33.36
2022-08-03T14:18:12.887Z,34.16
2022-08-03T14:20:49.140Z,34.07
2022-08-03T14:23:20.903Z,32.95
2022-08-03T14:25:51.460Z,33.40
2022-08-03T14:28:23.891Z,34.17
2022-08-03T14:30:54.434Z,33.53
2022-08-03T14:33:21.590Z,34.45
2022-08-03T14:35:48.966Z,33.75
2022-08-03T14:38:15.909Z,35.23
2022-08-03T14:40:50.150Z,34.24
2022-08-03T14:43:23.416Z,33.63
2022-08-03T14:45:53.703Z,34.08
2022-08-03T14:50:32.949Z,34.87
2022-08-03T14:51:16.802Z,34.13
2022-08-03T14:53:43.499Z,35.38
2022-08-03T14:56:10.926Z,34.72
2022-08-03T14:58:38.342Z,34.38
2022-08-03T15:02:03.286Z,36.97
2022-08-03T15:03:51.499Z,36.81
2022-08-03T15:06:18.005Z,35.31
2022-08-03T15:08:55.501Z,36.09
2022-08-03T15:11:30.897Z,35.62
2022-08-03T15:13:57.391Z,36.91
2022-08-03T15:16:23.850Z,36.60
2022-08-03T15:18:56.688Z,38.52
2022-08-03T15:21:46.559Z,36.59
2022-08-03T15:24:09.643Z,36.58
2022-08-03T15:26:41.055Z,37.21
2022-08-03T15:29:08.317Z,37.06
2022-08-03T15:31:34.845Z,35.91
2022-08-03T15:34:01.311Z,36.25
2022-08-03T15:36:27.773Z,36.59
2022-08-03T15:38:54.238Z,37.73
2022-08-03T15:41:20.739Z,36.77
2022-08-03T15:43:47.734Z,36.74
2022-08-03T15:46:30.283Z,36.60
2022-08-03T15:48:57.085Z,36.35
2022-08-03T15:51:23.620Z,36.64
2022-08-03T15:53:50.189Z,35.56
2022-08-03T15:56:18.713Z,35.72
2022-08-03T15:59:04.665Z,35.89
2022-08-03T16:01:32.875Z,35.62
2022-08-03T16:03:59.581Z,35.08
2022-08-03T16:06:29.918Z,35.56
2022-08-03T16:09:04.865Z,35.34
2022-08-03T16:11:31.757Z,34.92
2022-08-03T16:14:13.797Z,35.34
2022-08-03T16:16:45.297Z,35.20
2022-08-03T16:19:13.161Z,35.64
2022-08-03T16:21:47.339Z,36.97
2022-08-03T16:24:17.449Z,36.23
2022-08-03T16:26:46.614Z,37.05
2022-08-03T16:29:22.420Z,35.73
2022-08-03T16:31:50.891Z,36.17
2022-08-03T16:34:17.848Z,36.47
2022-08-03T16:36:45.578Z,36.53
2022-08-03T16:39:12.035Z,37.38
2022-08-03T16:41:54.155Z,36.37
2022-08-03T16:44:25.656Z,36.83
2022-08-03T16:46:53.669Z,37.18
2022-08-03T16:49:55.468Z,36.40
2022-08-03T16:52:07.176Z,37.01
2022-08-03T16:54:33.937Z,36.14
2022-08-03T16:57:01.274Z,36.58
2022-08-03T16:59:36.164Z,36.50
2022-08-03T17:02:09.924Z,36.74
2022-08-03T17:04:37.020Z,37.16
2022-08-03T17:07:07.763Z,37.18
2022-08-03T17:09:38.270Z,37.29
2022-08-03T17:12:10.889Z,37.45
2022-08-03T17:14:38.080Z,37.29
2022-08-03T17:17:08.548Z,37.49
2022-08-03T17:19:47.261Z,37.67
2022-08-03T17:22:18.439Z,39.30
2022-08-03T17:24:52.703Z,38.59
2022-08-03T17:28:49.246Z,38.45
2022-08-03T17:30:14.840Z,39.10
2022-08-03T17:32:56.538Z,38.60
2022-08-03T17:35:36.431Z,38.99
2022-08-03T17:38:05.872Z,39.08
2022-08-03T17:40:33.296Z,39.16
2022-08-03T17:44:14.887Z,39.96
2022-08-03T17:45:52.767Z,39.51
2022-08-03T17:48:21.441Z,39.91
2022-08-03T17:50:58.652Z,40.13
2022-08-03T17:53:31.201Z,39.74
2022-08-03T17:56:40.696Z,39.70
2022-08-03T17:59:50.738Z,39.60
2022-08-03T18:02:51.936Z,39.64
2022-08-03T18:05:21.813Z,40.14
2022-08-03T18:08:00.913Z,39.84
2022-08-03T18:10:35.112Z,40.51
2022-08-03T18:13:10.950Z,40.58
2022-08-03T18:15:42.695Z,40.88
2022-08-03T18:18:11.621Z,40.90
2022-08-03T18:20:41.568Z,40.63
2022-08-03T18:23:10.876Z,40.95
2022-08-03T18:25:56.241Z,41.06
2022-08-03T18:28:28.887Z,41.62
2022-08-03T18:30:57.652Z,41.85
2022-08-03T18:34:17.446Z,42.41
2022-08-03T18:36:29.433Z,42.72
2022-08-03T18:38:58.366Z,43.30
2022-08-03T18:41:32.818Z,43.27
2022-08-03T18:44:06.825Z,44.13
2022-08-03T18:46:35.641Z,44.32
2022-08-03T18:49:16.905Z,44.73
2022-08-03T18:51:46.387Z,46.16
2022-08-03T18:54:45.555Z,46.60
2022-08-03T18:57:22.113Z,46.60
2022-08-03T19:00:05.920Z,46.58
2022-08-03T19:02:49.304Z,47.08
2022-08-03T19:05:22.110Z,46.96
2022-08-03T19:07:58.373Z,47.02
2022-08-03T19:10:31.142Z,47.76
2022-08-03T19:13:36.122Z,48.39
2022-08-03T19:16:41.968Z,49.04
2022-08-03T19:19:21.303Z,49.87
2022-08-03T19:21:51.526Z,50.85
2022-08-03T19:24:22.300Z,51.49
2022-08-03T19:26:55.927Z,51.04
2022-08-03T19:29:23.972Z,50.36
2022-08-03T19:32:14.961Z,50.95
2022-08-03T19:34:42.868Z,51.20
2022-08-03T19:37:15.419Z,51.42
2022-08-03T19:39:43.200Z,52.12
2022-08-03T19:42:20.486Z,51.66
2022-08-03T19:45:13.883Z,52.41
2022-08-03T19:47:47.443Z,52.64
2022-08-03T19:50:18.540Z,52.22
2022-08-03T19:52:47.834Z,52.62
2022-08-03T19:55:17.857Z,53.04
2022-08-03T19:57:49.304Z,53.48
2022-08-03T20:00:19.809Z,53.52
2022-08-03T20:02:47.239Z,54.53
2022-08-03T20:05:18.361Z,54.73
2022-08-03T20:07:47.808Z,54.65
2022-08-03T20:10:16.511Z,55.20
2022-08-03T20:12:44.730Z,55.34
2022-08-03T20:15:11.648Z,54.85
2022-08-03T20:17:56.854Z,54.79
2022-08-03T20:20:29.440Z,55.34
2022-08-03T20:22:58.244Z,55.80
2022-08-03T20:25:38.919Z,55.88
2022-08-03T20:28:14.137Z,56.21
2022-08-03T20:30:46.377Z,56.24
2022-08-03T20:33:18.278Z,56.47
2022-08-03T20:35:49.023Z,57.77
2022-08-03T20:38:19.569Z,58.32
2022-08-03T20:40:48.097Z,58.20
2022-08-03T20:43:15.846Z,58.35
2022-08-03T20:45:59.480Z,58.66
2022-08-03T20:48:29.026Z,58.78
2022-08-03T20:50:56.672Z,58.89
2022-08-03T20:53:57.381Z,59.16
2022-08-03T20:56:10.046Z,59.44
2022-08-03T20:58:36.977Z,60.01
2022-08-03T21:01:08.177Z,60.47
2022-08-03T21:03:41.059Z,60.99
2022-08-03T21:06:27.791Z,60.96
2022-08-03T21:09:04.243Z,60.97
2022-08-03T21:11:41.757Z,60.83
2022-08-03T21:14:33.216Z,60.51
2022-08-03T21:17:09.400Z,60.46
2022-08-03T21:19:52.157Z,60.87
2022-08-03T21:22:22.790Z,61.39
2022-08-03T21:24:54.122Z,61.52
2022-08-03T21:27:24.080Z,61.78
2022-08-03T21:29:53.288Z,61.38
2022-08-03T21:32:32.509Z,61.38
2022-08-03T21:34:59.757Z,62.11
2022-08-03T21:37:26.836Z,62.47
2022-08-03T21:39:54.868Z,62.24
2022-08-03T21:42:23.981Z,62.40
2022-08-03T21:44:54.036Z,62.46
2022-08-03T21:47:24.659Z,62.82
2022-08-03T21:50:08.523Z,63.07
2022-08-03T21:52:44.694Z,62.93
2022-08-03T21:55:18.359Z,63.21
2022-08-03T21:57:52.080Z,62.95
2022-08-03T22:00:20.361Z,63.02
2022-08-03T22:02:56.164Z,63.03
2022-08-03T22:05:42.878Z,63.08
2022-08-03T22:08:14.208Z,63.66
2022-08-03T22:10:43.557Z,63.60
2022-08-03T22:13:11.417Z,64.00
2022-08-03T22:15:37.852Z,63.83
2022-08-03T22:18:05.316Z,63.70
2022-08-03T22:20:31.848Z,64.09
2022-08-03T22:23:02.635Z,63.71
2022-08-03T22:25:31.558Z,63.70
2022-08-03T22:28:00.650Z,64.19
2022-08-03T22:30:27.353Z,64.48
2022-08-03T22:32:56.292Z,64.32
2022-08-03T22:35:24.952Z,63.86
2022-08-03T22:37:55.484Z,64.16
2022-08-03T22:40:22.116Z,64.38
2022-08-03T22:42:50.494Z,64.67
2022-08-03T22:45:45.832Z,64.39
2022-08-03T22:48:08.219Z,64.88
2022-08-03T22:50:35.056Z,65.14
2022-08-03T22:53:01.661Z,65.24
2022-08-03T22:55:28.306Z,64.87
2022-08-03T22:57:56.105Z,64.72
2022-08-03T23:00:23.597Z,64.96
2022-08-03T23:02:51.935Z,65.38
2022-08-03T23:06:01.115Z,65.62
2022-08-03T23:08:14.717Z,65.42
2022-08-03T23:10:46.657Z,66.01
2022-08-03T23:13:16.996Z,66.14
2022-08-03T23:15:51.672Z,65.75
2022-08-03T23:18:22.156Z,66.37
2022-08-03T23:20:52.706Z,66.57
2022-08-03T23:23:20.591Z,66.52
2022-08-03T23:25:49.379Z,66.48
2022-08-03T23:28:16.515Z,66.32
2022-08-03T23:30:44.615Z,66.00
2022-08-03T23:33:15.383Z,66.22
2022-08-03T23:36:28.211Z,66.42
2022-08-03T23:38:45.103Z,66.37
2022-08-03T23:41:12.633Z,66.85
2022-08-03T23:43:51.339Z,67.12
2022-08-03T23:46:21.096Z,67.43
2022-08-03T23:48:47.744Z,67.65
2022-08-03T23:51:29.599Z,67.57
2022-08-03T23:54:22.320Z,67.81
2022-08-03T23:56:59.920Z,67.75
2022-08-03T23:59:41.839Z,68.09
